createdAt,value
2017-06-12T00:00:07.957Z,0
2017-06-12T00:01:20.461Z,0
2017-06-12T00:02:32.682Z,0
2017-06-12T00:03:45.177Z,0
2017-06-12T00:04:57.705Z,0
2017-06-12T00:06:10.235Z,0
2017-06-12T00:07:22.485Z,0
2017-06-12T00:08:34.734Z,0
2017-06-12T00:09:46.930Z,0
2017-06-12T00:10:59.452Z,0
2017-06-12T00:12:11.697Z,0
2017-06-12T00:13:24.222Z,0
2017-06-12T00:14:36.439Z,0
2017-06-12T00:15:48.678Z,0
2017-06-12T00:17:01.238Z,0
2017-06-12T00:18:13.727Z,0
2017-06-12T00:19:26.240Z,0
2017-06-12T00:20:38.791Z,0
2017-06-12T00:21:51.319Z,0
2017-06-12T00:23:03.582Z,0
2017-06-12T00:24:16.124Z,0
2017-06-12T00:25:28.656Z,0
2017-06-12T00:26:41.195Z,0
2017-06-12T00:27:53.711Z,0
2017-06-12T00:29:05.965Z,0
2017-06-12T00:30:18.588Z,0
2017-06-12T00:31:31.108Z,0
2017-06-12T00:32:43.623Z,0
2017-06-12T00:33:55.869Z,0
2017-06-12T00:35:08.397Z,0
2017-06-12T00:36:20.921Z,0
2017-06-12T00:37:33.464Z,0
2017-06-12T00:38:46.004Z,0
2017-06-12T00:39:58.524Z,0
2017-06-12T00:41:10.867Z,0
2017-06-12T00:42:23.377Z,0
2017-06-12T00:43:35.912Z,0
2017-06-12T00:44:48.462Z,0
2017-06-12T00:46:00.687Z,0
2017-06-12T00:47:13.496Z,0
2017-06-12T00:48:26.029Z,0
2017-06-12T00:49:38.570Z,0
2017-06-12T00:50:51.109Z,0
2017-06-12T00:52:03.330Z,0
2017-06-12T00:53:15.562Z,0
2017-06-12T00:54:28.108Z,0
2017-06-12T00:55:40.648Z,0
2017-06-12T00:56:52.873Z,0
2017-06-12T00:58:05.396Z,0
2017-06-12T00:59:17.955Z,0
2017-06-12T01:00:30.164Z,0
2017-06-12T01:01:42.710Z,0
2017-06-12T01:02:54.971Z,0
2017-06-12T01:04:07.225Z,0
2017-06-12T01:05:19.788Z,0
2017-06-12T01:06:32.313Z,0
2017-06-12T01:07:44.838Z,0
2017-06-12T01:08:57.073Z,0
2017-06-12T01:10:09.601Z,0
2017-06-12T01:11:22.129Z,0
2017-06-12T01:12:34.672Z,0
2017-06-12T01:13:46.898Z,0
2017-06-12T01:14:59.427Z,0
2017-06-12T01:16:11.651Z,0
2017-06-12T01:17:24.178Z,0
2017-06-12T01:18:36.689Z,0
2017-06-12T01:19:49.524Z,0
2017-06-12T01:21:02.040Z,0
2017-06-12T01:22:14.560Z,0
2017-06-12T01:23:27.064Z,0
2017-06-12T01:24:39.321Z,0
2017-06-12T01:25:51.548Z,0
2017-06-12T01:27:04.098Z,0
2017-06-12T01:28:16.315Z,0
2017-06-12T01:29:28.832Z,0
2017-06-12T01:30:41.357Z,0
2017-06-12T01:31:53.878Z,0
2017-06-12T01:33:06.401Z,0
2017-06-12T01:34:18.943Z,0
2017-06-12T01:35:31.216Z,0
2017-06-12T01:36:43.735Z,0
2017-06-12T01:37:55.940Z,0
2017-06-12T01:39:08.524Z,0
2017-06-12T01:40:21.069Z,0
2017-06-12T01:41:33.599Z,0
2017-06-12T01:42:46.124Z,0
2017-06-12T01:43:58.339Z,0
2017-06-12T01:45:10.858Z,0
2017-06-12T01:46:23.682Z,0
2017-06-12T01:47:36.200Z,0
2017-06-12T01:48:48.742Z,0
2017-06-12T01:50:00.996Z,0
2017-06-12T01:51:13.544Z,0
2017-06-12T01:52:26.061Z,0
2017-06-12T01:53:38.606Z,0
2017-06-12T01:54:51.150Z,0
2017-06-12T01:56:03.671Z,0
2017-06-12T01:57:16.296Z,0
2017-06-12T01:58:28.817Z,0
2017-06-12T01:59:41.355Z,0
2017-06-12T02:00:53.914Z,0
2017-06-12T02:02:06.167Z,0
2017-06-12T02:03:18.717Z,0
2017-06-12T02:04:31.242Z,4
2017-06-12T02:05:43.763Z,4
2017-06-12T02:06:56.284Z,4
2017-06-12T02:08:09.117Z,4
2017-06-12T02:09:21.654Z,4
2017-06-12T02:10:34.256Z,0
2017-06-12T02:11:46.492Z,4
2017-06-12T02:12:59.034Z,8
2017-06-12T02:14:11.280Z,8
2017-06-12T02:15:23.522Z,8
2017-06-12T02:16:36.051Z,12
2017-06-12T02:17:48.576Z,12
2017-06-12T02:19:01.103Z,16
2017-06-12T02:20:13.660Z,20
2017-06-12T02:21:26.202Z,24
2017-06-12T02:22:38.737Z,24
2017-06-12T02:23:51.280Z,32
2017-06-12T02:25:03.792Z,36
2017-06-12T02:26:16.319Z,40
2017-06-12T02:27:28.857Z,44
2017-06-12T02:28:41.361Z,52
2017-06-12T02:29:53.878Z,60
2017-06-12T02:31:06.419Z,68
2017-06-12T02:32:18.944Z,68
2017-06-12T02:33:31.486Z,76
2017-06-12T02:34:44.057Z,80
2017-06-12T02:35:56.607Z,88
2017-06-12T02:37:08.832Z,92
2017-06-12T02:38:21.378Z,96
2017-06-12T02:39:33.927Z,112
2017-06-12T02:40:46.287Z,128
2017-06-12T02:41:58.816Z,140
2017-06-12T02:43:11.328Z,156
2017-06-12T02:44:23.835Z,160
2017-06-12T02:45:36.382Z,148
2017-06-12T02:46:48.927Z,152
2017-06-12T02:48:01.149Z,168
2017-06-12T02:49:13.393Z,184
2017-06-12T02:50:25.896Z,188
2017-06-12T02:51:38.453Z,192
2017-06-12T02:52:50.685Z,212
2017-06-12T02:54:03.224Z,236
2017-06-12T02:55:15.749Z,256
2017-06-12T02:56:28.271Z,296
2017-06-12T02:57:40.817Z,316
2017-06-12T02:58:53.340Z,328
2017-06-12T03:00:05.583Z,364
2017-06-12T03:01:18.125Z,400
2017-06-12T03:02:30.346Z,440
2017-06-12T03:03:42.888Z,492
2017-06-12T03:04:55.416Z,536
2017-06-12T03:06:07.361Z,512
2017-06-12T03:07:19.883Z,500
2017-06-12T03:08:32.100Z,524
2017-06-12T03:09:44.318Z,592
2017-06-12T03:10:56.538Z,776
2017-06-12T03:12:09.048Z,948
2017-06-12T03:13:21.692Z,1032
2017-06-12T03:14:33.934Z,996
2017-06-12T03:15:46.479Z,864
2017-06-12T03:16:59.014Z,748
2017-06-12T03:18:11.563Z,728
2017-06-12T03:19:23.788Z,864
2017-06-12T03:20:36.338Z,1136
2017-06-12T03:21:48.882Z,1564
2017-06-12T03:23:01.101Z,2008
2017-06-12T03:24:13.702Z,2380
2017-06-12T03:25:25.643Z,2476
2017-06-12T03:26:38.168Z,2428
2017-06-12T03:27:50.713Z,2164
2017-06-12T03:29:03.257Z,1948
2017-06-12T03:30:14.858Z,2116
2017-06-12T03:31:27.383Z,2508
2017-06-12T03:32:39.964Z,2776
2017-06-12T03:33:52.518Z,2760
2017-06-12T03:35:04.777Z,2540
2017-06-12T03:36:17.006Z,2476
2017-06-12T03:37:29.531Z,2492
2017-06-12T03:38:41.774Z,2708
2017-06-12T03:39:54.286Z,2768
2017-06-12T03:41:06.832Z,2512
2017-06-12T03:42:18.754Z,2200
2017-06-12T03:43:31.261Z,2060
2017-06-12T03:44:43.503Z,2120
2017-06-12T03:45:56.042Z,2120
2017-06-12T03:47:07.978Z,2032
2017-06-12T03:48:20.515Z,1940
2017-06-12T03:49:32.716Z,2012
2017-06-12T03:50:44.934Z,2060
2017-06-12T03:51:57.482Z,2184
2017-06-12T03:53:10.049Z,2448
2017-06-12T03:54:22.574Z,2804
2017-06-12T03:55:35.125Z,2880
2017-06-12T03:56:47.742Z,2700
2017-06-12T03:58:00.263Z,2564
2017-06-12T03:59:12.800Z,2948
2017-06-12T04:00:25.328Z,3448
2017-06-12T04:01:37.841Z,3816
2017-06-12T04:02:50.384Z,4660
2017-06-12T04:04:02.908Z,4592
2017-06-12T04:05:15.454Z,3528
2017-06-12T04:06:27.704Z,2640
2017-06-12T04:07:40.225Z,2664
2017-06-12T04:08:52.749Z,2516
2017-06-12T04:10:05.270Z,2300
2017-06-12T04:11:17.487Z,2104
2017-06-12T04:12:30.033Z,1800
2017-06-12T04:13:42.555Z,2068
2017-06-12T04:14:55.104Z,2760
2017-06-12T04:16:07.325Z,3016
2017-06-12T04:17:19.847Z,2904
2017-06-12T04:18:32.367Z,3036
2017-06-12T04:19:44.905Z,2772
2017-06-12T04:20:57.447Z,2356
2017-06-12T04:22:09.958Z,2188
2017-06-12T04:23:22.195Z,1800
2017-06-12T04:24:34.721Z,1632
2017-06-12T04:25:47.238Z,1644
2017-06-12T04:26:59.734Z,2112
2017-06-12T04:28:12.255Z,3228
2017-06-12T04:29:24.797Z,3476
2017-06-12T04:30:37.352Z,3460
2017-06-12T04:31:49.895Z,3092
2017-06-12T04:33:02.414Z,3104
2017-06-12T04:34:14.937Z,3324
2017-06-12T04:35:27.181Z,3288
2017-06-12T04:36:39.705Z,3820
2017-06-12T04:37:52.256Z,4384
2017-06-12T04:39:04.822Z,3756
2017-06-12T04:40:17.439Z,3236
2017-06-12T04:41:29.953Z,3492
2017-06-12T04:42:42.481Z,4524
2017-06-12T04:43:54.998Z,5528
2017-06-12T04:45:07.248Z,5740
2017-06-12T04:46:19.794Z,6324
2017-06-12T04:47:32.023Z,7640
2017-06-12T04:48:44.591Z,8428
2017-06-12T04:49:57.107Z,8576
2017-06-12T04:51:09.327Z,8108
2017-06-12T04:52:21.848Z,7440
2017-06-12T04:53:34.373Z,6688
2017-06-12T04:54:46.940Z,6100
2017-06-12T04:55:59.438Z,6520
2017-06-12T04:57:11.961Z,8496
2017-06-12T04:58:24.488Z,9172
2017-06-12T04:59:36.727Z,7648
2017-06-12T05:00:49.245Z,7124
2017-06-12T05:02:01.791Z,5708
2017-06-12T05:03:14.290Z,4132
2017-06-12T05:04:26.854Z,3992
2017-06-12T05:05:39.396Z,4876
2017-06-12T05:06:51.929Z,6112
2017-06-12T05:08:04.463Z,7600
2017-06-12T05:09:17.009Z,8060
2017-06-12T05:10:29.237Z,8412
2017-06-12T05:11:41.780Z,8792
2017-06-12T05:12:53.720Z,8980
2017-06-12T05:14:05.953Z,9060
2017-06-12T05:15:18.201Z,8992
2017-06-12T05:16:30.764Z,10012
2017-06-12T05:17:42.716Z,11872
2017-06-12T05:18:55.309Z,12244
2017-06-12T05:20:07.259Z,11128
2017-06-12T05:21:19.821Z,10472
2017-06-12T05:22:32.342Z,10500
2017-06-12T05:23:44.649Z,11360
2017-06-12T05:24:56.613Z,11892
2017-06-12T05:26:08.859Z,11624
2017-06-12T05:27:21.383Z,11416
2017-06-12T05:28:33.631Z,12176
2017-06-12T05:29:46.175Z,14184
2017-06-12T05:30:58.421Z,16056
2017-06-12T05:32:10.964Z,18080
2017-06-12T05:33:23.485Z,14756
2017-06-12T05:34:36.001Z,13208
2017-06-12T05:35:48.551Z,14452
2017-06-12T05:37:00.777Z,15772
2017-06-12T05:38:12.712Z,14076
2017-06-12T05:39:25.225Z,10540
2017-06-12T05:40:37.789Z,8252
2017-06-12T05:41:50.337Z,8180
2017-06-12T05:43:02.885Z,8956
2017-06-12T05:44:15.098Z,10076
2017-06-12T05:45:27.638Z,10568
2017-06-12T05:46:40.190Z,10964
2017-06-12T05:47:52.436Z,11996
2017-06-12T05:49:04.974Z,11188
2017-06-12T05:50:17.528Z,10516
2017-06-12T05:51:30.048Z,11820
2017-06-12T05:52:42.290Z,12192
2017-06-12T05:53:54.515Z,11660
2017-06-12T05:55:06.740Z,10872
2017-06-12T05:56:18.957Z,11988
2017-06-12T05:57:31.473Z,13876
2017-06-12T05:58:44.030Z,14884
2017-06-12T05:59:55.970Z,14020
2017-06-12T06:01:08.494Z,13892
2017-06-12T06:02:21.037Z,13924
2017-06-12T06:03:33.562Z,13352
2017-06-12T06:04:45.807Z,15200
2017-06-12T06:05:58.050Z,16552
2017-06-12T06:07:10.574Z,15648
2017-06-12T06:08:23.158Z,18432
2017-06-12T06:09:35.683Z,22816
2017-06-12T06:10:48.201Z,18624
2017-06-12T06:12:00.496Z,24288
2017-06-12T06:13:13.025Z,21952
2017-06-12T06:14:25.550Z,24416
2017-06-12T06:15:38.124Z,23328
2017-06-12T06:16:50.644Z,20000
2017-06-12T06:18:03.236Z,16724
2017-06-12T06:19:15.472Z,19232
2017-06-12T06:20:27.726Z,22880
2017-06-12T06:21:40.247Z,56512
2017-06-12T06:22:52.760Z,21568
2017-06-12T06:24:04.983Z,21120
2017-06-12T06:25:17.514Z,33984
2017-06-12T06:26:30.056Z,23776
2017-06-12T06:27:42.579Z,50176
2017-06-12T06:28:55.127Z,22976
2017-06-12T06:30:07.370Z,21664
2017-06-12T06:31:19.592Z,20896
2017-06-12T06:32:32.139Z,20064
2017-06-12T06:33:44.658Z,18496
2017-06-12T06:34:56.896Z,19040
2017-06-12T06:36:09.122Z,19328
2017-06-12T06:37:21.664Z,19168
2017-06-12T06:38:33.917Z,19520
2017-06-12T06:39:46.464Z,44192
2017-06-12T06:40:59.030Z,17664
2017-06-12T06:42:11.555Z,19552
2017-06-12T06:43:24.097Z,25984
2017-06-12T06:44:36.622Z,43136
2017-06-12T06:45:48.892Z,25504
2017-06-12T06:47:00.856Z,28384
2017-06-12T06:48:13.098Z,48896
2017-06-12T06:49:25.352Z,22176
2017-06-12T06:50:37.905Z,22016
2017-06-12T06:51:50.425Z,40000
2017-06-12T06:53:02.942Z,14676
2017-06-12T06:54:15.464Z,31232
2017-06-12T06:55:28.032Z,69632
2017-06-12T06:56:40.549Z,26432
2017-06-12T06:57:53.065Z,25312
2017-06-12T06:59:05.019Z,52576
2017-06-12T07:00:17.566Z,20160
2017-06-12T07:01:30.103Z,26656
2017-06-12T07:02:42.653Z,67104
2017-06-12T07:03:55.178Z,33920
2017-06-12T07:05:07.742Z,21184
2017-06-12T07:06:20.270Z,30816
2017-06-12T07:07:32.811Z,38208
2017-06-12T07:08:45.358Z,52288
2017-06-12T07:09:57.882Z,30592
2017-06-12T07:11:10.110Z,70272
2017-06-12T07:12:22.675Z,12484
2017-06-12T07:13:35.198Z,71072
2017-06-12T07:14:47.746Z,70240
2017-06-12T07:16:00.015Z,11548
2017-06-12T07:17:12.550Z,75616
2017-06-12T07:18:24.804Z,76608
2017-06-12T07:19:37.042Z,72160
2017-06-12T07:20:49.275Z,73632
2017-06-12T07:22:01.492Z,74592
2017-06-12T07:23:14.013Z,51168
2017-06-12T07:24:26.559Z,70272
2017-06-12T07:25:39.107Z,14572
2017-06-12T07:26:51.670Z,60384
2017-06-12T07:28:03.914Z,14240
2017-06-12T07:29:16.170Z,69824
2017-06-12T07:30:28.734Z,22784
2017-06-12T07:31:41.305Z,49504
2017-06-12T07:32:53.530Z,71200
2017-06-12T07:34:05.781Z,71808
2017-06-12T07:35:18.051Z,52576
2017-06-12T07:36:30.610Z,73568
2017-06-12T07:37:43.164Z,78496
2017-06-12T07:38:55.705Z,22048
2017-06-12T07:40:07.930Z,63040
2017-06-12T07:41:20.469Z,78592
2017-06-12T07:42:33.014Z,23616
2017-06-12T07:43:45.571Z,83584
2017-06-12T07:44:57.814Z,80512
2017-06-12T07:46:10.363Z,14216
2017-06-12T07:47:22.948Z,16572
2017-06-12T07:48:35.480Z,80576
2017-06-12T07:49:48.048Z,37920
2017-06-12T07:51:00.264Z,86912
2017-06-12T07:52:12.489Z,89344
2017-06-12T07:53:25.057Z,17516
2017-06-12T07:54:37.613Z,81120
2017-06-12T07:55:50.152Z,82048
2017-06-12T07:57:02.091Z,81728
2017-06-12T07:58:14.037Z,76416
2017-06-12T07:59:26.265Z,19968
2017-06-12T08:00:38.803Z,93120
2017-06-12T08:01:51.386Z,90528
2017-06-12T08:03:03.928Z,17412
2017-06-12T08:04:16.469Z,93792
2017-06-12T08:05:28.993Z,91968
2017-06-12T08:06:40.938Z,92416
2017-06-12T08:07:53.491Z,89824
2017-06-12T08:09:06.032Z,83072
2017-06-12T08:10:18.300Z,87648
2017-06-12T08:11:30.870Z,85856
2017-06-12T08:12:43.423Z,87968
2017-06-12T08:13:55.644Z,88256
2017-06-12T08:15:07.904Z,90720
2017-06-12T08:16:20.462Z,85536
2017-06-12T08:17:33.029Z,87648
2017-06-12T08:18:45.576Z,92608
2017-06-12T08:19:58.101Z,96736
2017-06-12T08:21:10.641Z,86944
2017-06-12T08:22:23.193Z,98848
2017-06-12T08:23:35.762Z,71936
2017-06-12T08:24:48.315Z,17060
2017-06-12T08:26:00.920Z,95680
2017-06-12T08:27:13.149Z,44000
2017-06-12T08:28:25.116Z,96640
2017-06-12T08:29:37.343Z,75392
2017-06-12T08:30:49.606Z,94080
2017-06-12T08:32:02.148Z,15996
2017-06-12T08:33:14.400Z,17608
2017-06-12T08:34:26.949Z,54304
2017-06-12T08:35:39.512Z,17480
2017-06-12T08:36:52.063Z,94720
2017-06-12T08:38:04.604Z,91776
2017-06-12T08:39:16.934Z,91968
2017-06-12T08:40:29.205Z,16096
2017-06-12T08:41:41.771Z,17096
2017-06-12T08:42:54.018Z,37120
2017-06-12T08:44:06.565Z,98368
2017-06-12T08:45:18.811Z,105536
2017-06-12T08:46:31.334Z,101600
2017-06-12T08:47:43.603Z,101024
2017-06-12T08:48:55.544Z,98816
2017-06-12T08:50:08.094Z,96672
2017-06-12T08:51:20.341Z,96416
2017-06-12T08:52:32.865Z,94688
2017-06-12T08:53:45.452Z,90912
2017-06-12T08:54:57.402Z,91296
2017-06-12T08:56:09.648Z,83264
2017-06-12T08:57:21.894Z,92288
2017-06-12T08:58:34.433Z,11652
2017-06-12T08:59:46.681Z,96064
2017-06-12T09:00:58.635Z,97504
2017-06-12T09:02:11.205Z,100800
2017-06-12T09:03:23.748Z,18912
2017-06-12T09:04:36.273Z,98304
2017-06-12T09:05:48.843Z,94752
2017-06-12T09:07:01.089Z,18208
2017-06-12T09:08:13.632Z,96224
2017-06-12T09:09:26.183Z,95200
2017-06-12T09:10:38.724Z,90336
2017-06-12T09:11:51.271Z,29504
2017-06-12T09:13:03.821Z,96928
2017-06-12T09:14:16.391Z,91104
2017-06-12T09:15:28.952Z,94272
2017-06-12T09:16:41.233Z,93088
2017-06-12T09:17:53.802Z,93120
2017-06-12T09:19:06.367Z,91904
2017-06-12T09:20:18.944Z,92128
2017-06-12T09:21:31.191Z,92224
2017-06-12T09:22:43.464Z,91520
2017-06-12T09:23:55.682Z,97056
2017-06-12T09:25:07.658Z,98592
2017-06-12T09:26:19.620Z,99136
2017-06-12T09:27:31.842Z,28736
2017-06-12T09:28:44.087Z,100448
2017-06-12T09:29:56.613Z,92576
2017-06-12T09:31:09.179Z,88608
2017-06-12T09:32:21.728Z,87904
2017-06-12T09:33:34.314Z,86464
2017-06-12T09:34:46.588Z,85184
2017-06-12T09:35:59.163Z,89504
2017-06-12T09:37:11.709Z,93248
2017-06-12T09:38:24.256Z,94688
2017-06-12T09:39:36.522Z,98048
2017-06-12T09:40:49.101Z,17120
2017-06-12T09:42:01.368Z,93472
2017-06-12T09:43:13.893Z,94080
2017-06-12T09:44:26.430Z,93376
2017-06-12T09:45:38.998Z,70848
2017-06-12T09:46:51.276Z,16816
2017-06-12T09:48:03.852Z,21024
2017-06-12T09:49:15.842Z,96800
2017-06-12T09:50:28.414Z,93152
2017-06-12T09:51:40.406Z,90944
2017-06-12T09:52:52.985Z,93504
2017-06-12T09:54:05.530Z,101120
2017-06-12T09:55:17.176Z,102624
2017-06-12T09:56:29.119Z,98752
2017-06-12T09:57:41.093Z,95968
2017-06-12T09:58:53.313Z,93824
2017-06-12T10:00:05.865Z,94528
2017-06-12T10:01:17.834Z,94528
2017-06-12T10:02:30.402Z,96736
2017-06-12T10:03:42.987Z,98048
2017-06-12T10:04:55.560Z,98368
2017-06-12T10:06:07.803Z,52320
2017-06-12T10:07:19.782Z,98528
2017-06-12T10:08:32.045Z,93280
2017-06-12T10:09:44.602Z,90176
2017-06-12T10:10:56.873Z,88032
2017-06-12T10:12:09.118Z,91936
2017-06-12T10:13:21.665Z,94976
2017-06-12T10:14:33.937Z,22144
2017-06-12T10:15:46.478Z,80928
2017-06-12T10:16:59.028Z,98080
2017-06-12T10:18:11.570Z,97856
2017-06-12T10:19:24.133Z,97568
2017-06-12T10:20:36.690Z,98752
2017-06-12T10:21:49.278Z,98464
2017-06-12T10:23:01.528Z,97440
2017-06-12T10:24:13.777Z,96224
2017-06-12T10:25:26.049Z,93696
2017-06-12T10:26:38.016Z,95488
2017-06-12T10:27:50.263Z,97344
2017-06-12T10:29:02.829Z,101728
2017-06-12T10:30:14.522Z,21760
2017-06-12T10:31:27.106Z,15048
2017-06-12T10:32:39.346Z,13428
2017-06-12T10:33:51.322Z,11824
2017-06-12T10:35:03.591Z,46016
2017-06-12T10:36:15.559Z,94688
2017-06-12T10:37:28.111Z,13044
2017-06-12T10:38:40.325Z,92640
2017-06-12T10:39:52.871Z,94720
2017-06-12T10:41:05.397Z,96960
2017-06-12T10:42:17.341Z,30432
2017-06-12T10:43:29.908Z,83488
2017-06-12T10:44:42.156Z,25216
2017-06-12T10:45:54.729Z,21280
2017-06-12T10:47:06.976Z,19104
2017-06-12T10:48:19.521Z,17952
2017-06-12T10:49:32.093Z,18080
2017-06-12T10:50:44.353Z,18688
2017-06-12T10:51:56.630Z,19200
2017-06-12T10:53:09.172Z,20320
2017-06-12T10:54:21.100Z,24416
2017-06-12T10:55:33.664Z,109312
2017-06-12T10:56:45.941Z,38016
2017-06-12T10:57:58.511Z,36064
2017-06-12T10:59:10.436Z,39584
2017-06-12T11:00:22.673Z,35328
2017-06-12T11:01:34.924Z,31168
2017-06-12T11:02:46.865Z,28704
2017-06-12T11:03:59.115Z,28096
2017-06-12T11:05:11.036Z,29728
2017-06-12T11:06:22.975Z,58368
2017-06-12T11:07:35.520Z,36960
2017-06-12T11:08:48.041Z,38656
2017-06-12T11:10:00.578Z,33792
2017-06-12T11:11:13.121Z,31264
2017-06-12T11:12:25.666Z,30624
2017-06-12T11:13:38.207Z,71936
2017-06-12T11:14:50.431Z,60768
2017-06-12T11:16:02.375Z,120224
2017-06-12T11:17:14.598Z,64480
2017-06-12T11:18:26.833Z,41856
2017-06-12T11:19:39.380Z,37728
2017-06-12T11:20:51.942Z,38528
2017-06-12T11:22:04.505Z,36256
2017-06-12T11:23:16.449Z,36544
2017-06-12T11:24:28.705Z,51072
2017-06-12T11:25:41.270Z,32448
2017-06-12T11:26:53.787Z,28256
2017-06-12T11:28:06.304Z,25376
2017-06-12T11:29:18.835Z,25824
2017-06-12T11:30:30.791Z,31712
2017-06-12T11:31:43.001Z,32512
2017-06-12T11:32:55.246Z,31648
2017-06-12T11:34:07.179Z,28544
2017-06-12T11:35:19.429Z,69280
2017-06-12T11:36:31.982Z,43616
2017-06-12T11:37:44.247Z,97184
2017-06-12T11:38:56.804Z,89760
2017-06-12T11:40:09.372Z,35488
2017-06-12T11:41:21.916Z,86592
2017-06-12T11:42:34.187Z,62528
2017-06-12T11:43:46.158Z,90272
2017-06-12T11:44:58.400Z,64736
2017-06-12T11:46:10.347Z,68864
2017-06-12T11:47:22.588Z,32384
2017-06-12T11:48:34.846Z,35808
2017-06-12T11:49:47.402Z,31136
2017-06-12T11:50:59.060Z,37472
2017-06-12T11:52:11.323Z,52800
2017-06-12T11:53:23.868Z,46208
2017-06-12T11:54:36.439Z,35680
2017-06-12T11:55:49.006Z,38432
2017-06-12T11:57:01.286Z,33888
2017-06-12T11:58:13.834Z,39456
2017-06-12T11:59:25.805Z,29888
2017-06-12T12:00:38.068Z,27808
2017-06-12T12:01:50.623Z,27744
2017-06-12T12:03:03.184Z,91328
2017-06-12T12:04:15.711Z,83424
2017-06-12T12:05:27.949Z,77248
2017-06-12T12:06:40.506Z,76992
2017-06-12T12:07:53.076Z,79488
2017-06-12T12:09:05.297Z,87072
2017-06-12T12:10:17.545Z,84800
2017-06-12T12:11:29.486Z,84064
2017-06-12T12:12:42.032Z,80832
2017-06-12T12:13:54.259Z,78784
2017-06-12T12:15:06.502Z,29952
2017-06-12T12:16:19.070Z,85184
2017-06-12T12:17:31.616Z,25120
2017-06-12T12:18:43.562Z,23424
2017-06-12T12:19:56.128Z,21952
2017-06-12T12:21:08.354Z,19776
2017-06-12T12:22:20.621Z,18560
2017-06-12T12:23:33.163Z,17312
2017-06-12T12:24:45.117Z,15332
2017-06-12T12:25:57.388Z,15352
2017-06-12T12:27:09.625Z,19008
2017-06-12T12:28:22.184Z,25344
2017-06-12T12:29:34.729Z,31008
2017-06-12T12:30:46.970Z,47072
2017-06-12T12:31:59.217Z,89504
2017-06-12T12:33:11.762Z,82464
2017-06-12T12:34:24.318Z,78176
2017-06-12T12:35:36.858Z,74368
2017-06-12T12:36:49.425Z,73824
2017-06-12T12:38:01.751Z,77856
2017-06-12T12:39:14.009Z,32000
2017-06-12T12:40:26.242Z,80704
2017-06-12T12:41:38.509Z,73952
2017-06-12T12:42:50.740Z,78528
2017-06-12T12:44:03.318Z,87168
2017-06-12T12:45:15.550Z,42912
2017-06-12T12:46:27.822Z,85984
2017-06-12T12:47:40.092Z,25824
2017-06-12T12:48:52.364Z,76992
2017-06-12T12:50:04.922Z,72992
2017-06-12T12:51:17.478Z,72352
2017-06-12T12:52:29.447Z,71712
2017-06-12T12:53:41.993Z,70496
2017-06-12T12:54:53.913Z,68864
2017-06-12T12:56:06.161Z,70144
2017-06-12T12:57:18.109Z,69312
2017-06-12T12:58:30.697Z,70432
2017-06-12T12:59:43.248Z,70944
2017-06-12T13:00:55.799Z,43424
2017-06-12T13:02:07.739Z,20832
2017-06-12T13:03:20.286Z,13844
2017-06-12T13:04:32.806Z,24704
2017-06-12T13:05:45.353Z,18784
2017-06-12T13:06:57.901Z,20096
2017-06-12T13:08:09.846Z,41920
2017-06-12T13:09:22.111Z,30048
2017-06-12T13:10:34.646Z,22624
2017-06-12T13:11:47.207Z,20064
2017-06-12T13:12:59.148Z,21120
2017-06-12T13:14:11.094Z,20704
2017-06-12T13:15:23.639Z,21056
2017-06-12T13:16:35.595Z,20448
2017-06-12T13:17:48.104Z,19232
2017-06-12T13:19:00.654Z,18496
2017-06-12T13:20:12.906Z,18464
2017-06-12T13:21:25.426Z,19072
2017-06-12T13:22:37.675Z,23104
2017-06-12T13:23:49.912Z,39264
2017-06-12T13:25:02.482Z,63328
2017-06-12T13:26:15.011Z,76768
2017-06-12T13:27:27.278Z,72608
2017-06-12T13:28:39.802Z,72064
2017-06-12T13:29:52.042Z,37952
2017-06-12T13:31:04.287Z,62272
2017-06-12T13:32:16.832Z,74656
2017-06-12T13:33:28.767Z,36768
2017-06-12T13:34:41.032Z,68832
2017-06-12T13:35:53.598Z,68736
2017-06-12T13:37:05.850Z,66176
2017-06-12T13:38:18.394Z,65216
2017-06-12T13:39:30.930Z,63008
2017-06-12T13:40:42.609Z,64224
2017-06-12T13:41:55.130Z,64192
2017-06-12T13:43:07.379Z,64096
2017-06-12T13:44:19.993Z,64608
2017-06-12T13:45:32.517Z,15164
2017-06-12T13:46:45.055Z,46656
2017-06-12T13:47:57.626Z,71456
2017-06-12T13:49:09.872Z,80000
2017-06-12T13:50:22.444Z,77120
2017-06-12T13:51:34.668Z,71648
2017-06-12T13:52:47.223Z,68640
2017-06-12T13:53:59.164Z,62528
2017-06-12T13:55:11.091Z,13408
2017-06-12T13:56:23.656Z,18624
2017-06-12T13:57:36.220Z,24160
2017-06-12T13:58:48.776Z,31456
2017-06-12T14:00:00.723Z,20000
2017-06-12T14:01:12.693Z,17728
2017-06-12T14:02:25.246Z,17312
2017-06-12T14:03:37.809Z,14396
2017-06-12T14:04:50.128Z,13920
2017-06-12T14:06:02.401Z,14296
2017-06-12T14:07:14.668Z,17760
2017-06-12T14:08:26.922Z,22080
2017-06-12T14:09:39.135Z,23776
2017-06-12T14:10:51.389Z,26560
2017-06-12T14:12:03.631Z,39840
2017-06-12T14:13:15.870Z,23264
2017-06-12T14:14:28.440Z,21696
2017-06-12T14:15:40.958Z,20288
2017-06-12T14:16:53.187Z,18112
2017-06-12T14:18:05.731Z,17696
2017-06-12T14:19:17.682Z,16804
2017-06-12T14:20:30.249Z,15224
2017-06-12T14:21:42.798Z,15524
2017-06-12T14:22:55.336Z,17600
2017-06-12T14:24:07.579Z,31360
2017-06-12T14:25:19.836Z,54208
2017-06-12T14:26:32.353Z,50272
2017-06-12T14:27:44.874Z,43872
2017-06-12T14:28:57.414Z,40512
2017-06-12T14:30:09.673Z,9828
2017-06-12T14:31:22.204Z,7632
2017-06-12T14:32:34.459Z,8236
2017-06-12T14:33:46.724Z,11636
2017-06-12T14:34:58.975Z,13948
2017-06-12T14:36:11.522Z,16396
2017-06-12T14:37:24.396Z,19296
2017-06-12T14:38:36.608Z,18592
2017-06-12T14:39:48.512Z,17472
2017-06-12T14:41:01.030Z,32000
2017-06-12T14:42:13.257Z,47360
2017-06-12T14:43:25.489Z,46848
2017-06-12T14:44:37.717Z,24704
2017-06-12T14:45:50.241Z,12672
2017-06-12T14:47:02.191Z,14544
2017-06-12T14:48:14.430Z,15104
2017-06-12T14:49:26.956Z,14204
2017-06-12T14:50:39.498Z,13400
2017-06-12T14:51:51.747Z,13296
2017-06-12T14:53:04.014Z,12940
2017-06-12T14:54:16.531Z,11716
2017-06-12T14:55:29.073Z,10480
2017-06-12T14:56:41.305Z,9500
2017-06-12T14:57:53.856Z,8752
2017-06-12T14:59:06.090Z,8684
2017-06-12T15:00:18.319Z,11784
2017-06-12T15:01:30.564Z,14500
2017-06-12T15:02:42.810Z,14308
2017-06-12T15:03:55.030Z,14272
2017-06-12T15:05:07.277Z,18464
2017-06-12T15:06:19.244Z,19968
2017-06-12T15:07:31.746Z,17728
2017-06-12T15:08:44.279Z,15208
2017-06-12T15:09:56.484Z,12956
2017-06-12T15:11:08.402Z,9432
2017-06-12T15:12:20.647Z,6856
2017-06-12T15:13:32.873Z,7308
2017-06-12T15:14:45.432Z,8372
2017-06-12T15:15:57.983Z,9604
2017-06-12T15:17:10.211Z,9032
2017-06-12T15:18:22.456Z,10308
2017-06-12T15:19:35.002Z,10844
2017-06-12T15:20:47.549Z,12632
2017-06-12T15:22:00.072Z,12016
2017-06-12T15:23:12.630Z,11044
2017-06-12T15:24:25.163Z,10204
2017-06-12T15:25:37.703Z,10732
2017-06-12T15:26:49.953Z,10704
2017-06-12T15:28:02.496Z,10476
2017-06-12T15:29:14.746Z,10996
2017-06-12T15:30:27.297Z,10108
2017-06-12T15:31:39.859Z,8712
2017-06-12T15:32:52.409Z,7480
2017-06-12T15:34:04.625Z,6712
2017-06-12T15:35:17.122Z,6488
2017-06-12T15:36:29.323Z,5744
2017-06-12T15:37:41.563Z,5872
2017-06-12T15:38:54.113Z,7520
2017-06-12T15:40:06.630Z,9784
2017-06-12T15:41:19.151Z,11704
2017-06-12T15:42:31.104Z,13908
2017-06-12T15:43:43.322Z,15944
2017-06-12T15:44:55.884Z,16832
2017-06-12T15:46:08.434Z,14188
2017-06-12T15:47:20.976Z,9740
2017-06-12T15:48:33.522Z,8668
2017-06-12T15:49:45.775Z,7748
2017-06-12T15:50:58.022Z,7012
2017-06-12T15:52:09.991Z,6480
2017-06-12T15:53:22.228Z,6500
2017-06-12T15:54:34.806Z,6528
2017-06-12T15:55:47.347Z,6484
2017-06-12T15:56:59.557Z,6304
2017-06-12T15:58:12.092Z,6012
2017-06-12T15:59:24.344Z,5768